LDPL/PUY METAR and TAF weather

Enter ICAO airport designator
Station Type Date Time Source
LDPL METAR 2022/08/12 14:30 UTC NOAA

LDPL 121430Z 06010KT 010V110 CAVOK 29/07 Q1013 NOSIG


Station Type Date Time Source
LDPL Decoded METAR 2022/08/12 14:30 UTC NOAA

Pula Aerodrome, Croatia (LDPL) 45-54N 013-55E 63M
Aug 12, 2022 - 10:30 AM EDT / 2022.08.12 1430 UTC
Wind: from the ENE (060 degrees) at 12 MPH (10 KT) (direction variable):0
Visibility: greater than 7 mile(s):0
Temperature: 84 F (29 C)
Dew Point: 44 F (7 C)
Relative Humidity: 24%
Pressure (altimeter): 29.91 in. Hg (1013 hPa)
ob: LDPL 121430Z 06010KT 010V110 CAVOK 29/07 Q1013 NOSIG
cycle: 14

Station Type Date Time Source
LDPL TAF 2022/08/12 12:27 UTC NOAA

TAF LDPL 121125Z 1212/1312 08009KT CAVOK TX27/1212Z TN22/1305Z PROB30
TEMPO 1212/1217 TS FEW050CB PROB40 1213/1218 27010KT PROB30
TEMPO 1217/1309 06015G25KT

Example: see airport list